Doris Moran — WRU2125 — position and weather

sailwx.info

Track history (hours):
 
Tides and Currents Weather Stations Pressure Air Temp Water Temp Dewpoint Dewpoint Depression Visibility Wind Speed Wind Dir Waves Ship Positions

Doris Moran

Owner: MORAN TOWING CORPORATION, New Canaan, CT. More information available from US FCC via Universal Licensing System and Coast Guard Vessel Documentation Center.

Last reported at 2017-Jul-26 14:00 UTC. Time now 2017-Jul-26 14:42 UTC.
Position N 40°39' W 074°03'.

Length 36 m; draft 5.3 m.

Type: Tug. MMSI: 366939790.

Date/timePositionNaut miles runAvg speedWind from/ knotsBaromVisibWave heightAir tempDewpointWater temp
2017-Jul-26 14:00N 40°39' W 074°03'0 0.2
2017-Jul-26 13:30N 40°39' W 074°03'0 0.0
2017-Jul-26 13:00N 40°39' W 074°03'0 0.1
2017-Jul-26 12:30N 40°39' W 074°03'0 0.1
2017-Jul-26 12:00N 40°39' W 074°03'0 0.1
2017-Jul-26 11:31N 40°39' W 074°03'4 8.9
2017-Jul-26 11:01N 40°39' W 074°09'2 2.8
2017-Jul-26 10:16N 40°39' W 074°11'1 4.9
2017-Jul-26 10:01N 40°39' W 074°10'3 6.2
2017-Jul-26 09:30N 40°39' W 074°06'2 3.1
2017-Jul-26 09:00N 40°39' W 074°04'3 3.9
2017-Jul-26 08:10N 40°38' W 074°08'0 0.0
2017-Jul-26 07:52N 40°38' W 074°08'0 0.0
2017-Jul-26 07:28N 40°38' W 074°08'0 0.0
2017-Jul-26 06:58N 40°38' W 074°08'0 0.0
2017-Jul-26 06:22N 40°38' W 074°08'0 0.0
2017-Jul-26 05:58N 40°38' W 074°08'0 0.0
2017-Jul-26 05:07N 40°38' W 074°08'0 0.0
2017-Jul-26 04:58N 40°38' W 074°08'0 0.0
2017-Jul-26 04:30N 40°38' W 074°08'4 8.9
2017-Jul-26 04:00N 40°41' W 074°03'2 3.1
2017-Jul-26 03:30N 40°41' W 074°01'0 0.0
2017-Jul-26 03:00N 40°41' W 074°01'3 6.7
2017-Jul-26 02:30N 40°40' W 074°05'0 0.4
2017-Jul-26 02:00N 40°40' W 074°05'0 0.2
2017-Jul-26 01:27N 40°40' W 074°05'1 2.1
2017-Jul-26 01:00N 40°40' W 074°04'2 4.8
2017-Jul-26 00:30N 40°38' W 074°03'3 5.6
2017-Jul-26 00:00N 40°39' W 074°06'1 2.3
2017-Jul-25 23:29N 40°38' W 074°08'0 0.0
2017-Jul-25 22:57N 40°38' W 074°08'3 7.6
2017-Jul-25 22:30N 40°38' W 074°12'5 8.9
2017-Jul-25 21:59N 40°33' W 074°14'1 2.2
2017-Jul-25 21:25N 40°32' W 074°15'0 0.6
2017-Jul-25 20:59N 40°33' W 074°15'510.6
2017-Jul-25 20:30N 40°37' W 074°12'2 3.7
2017-Jul-25 20:00N 40°39' W 074°11'2 4.2
2017-Jul-25 19:28N 40°38' W 074°08'0 0.6
2017-Jul-25 19:00N 40°39' W 074°08'2 3.6
2017-Jul-25 18:30N 40°40' W 074°08'1 1.9
2017-Jul-25 17:59N 40°41' W 074°09'1 1.7
2017-Jul-25 17:30N 40°42' W 074°08'0 0.1
2017-Jul-25 17:01N 40°42' W 074°08'2 4.2
2017-Jul-25 16:31N 40°39' W 074°09'2 4.7
2017-Jul-25 16:01N 40°39' W 074°06'0 0.9
2017-Jul-25 15:30N 40°39' W 074°06'1 0.8
2017-Jul-25 13:58N 40°38' W 074°08'0 0.0
2017-Jul-25 13:28N 40°38' W 074°08'0 0.0
2017-Jul-25 12:58N 40°38' W 074°08'0 0.0
2017-Jul-25 12:25N 40°38' W 074°08'0 0.0
2017-Jul-25 11:58N 40°38' W 074°08'0 0.0
2017-Jul-25 11:25N 40°38' W 074°08'0 0.0
2017-Jul-25 10:58N 40°38' W 074°08'0 0.0
2017-Jul-25 10:28N 40°38' W 074°08'0 0.0
2017-Jul-25 09:58N 40°38' W 074°08'0 0.0
2017-Jul-25 09:28N 40°38' W 074°08'0 0.0
2017-Jul-25 08:58N 40°38' W 074°08'0 0.0
2017-Jul-25 08:28N 40°38' W 074°08'0 0.0
2017-Jul-25 07:55N 40°38' W 074°08'0 0.0
2017-Jul-25 07:28N 40°38' W 074°08'0 0.0
2017-Jul-25 06:58N 40°38' W 074°08'0 0.0
2017-Jul-25 06:28N 40°38' W 074°08'0 0.0
2017-Jul-25 05:55N 40°38' W 074°08'0 0.0
2017-Jul-25 05:25N 40°38' W 074°08'0 0.0
2017-Jul-25 04:55N 40°38' W 074°08'0 0.0
2017-Jul-25 04:25N 40°38' W 074°08'0 0.0
2017-Jul-25 03:58N 40°38' W 074°08'0 0.0
2017-Jul-25 03:28N 40°38' W 074°08'0 0.0
2017-Jul-25 02:58N 40°38' W 074°08'0 0.0
2017-Jul-25 02:28N 40°38' W 074°08'0 0.0
2017-Jul-25 01:58N 40°38' W 074°08'2 4.6
2017-Jul-25 01:30N 40°39' W 074°05'0 0.4
2017-Jul-25 01:00N 40°39' W 074°05'1 1.6
2017-Jul-25 00:29N 40°40' W 074°04'0 0.0
2017-Jul-24 23:59N 40°40' W 074°04'1 1.2
2017-Jul-24 23:30N 40°40' W 074°03'3 5.6
2017-Jul-24 22:58N 40°41' W 074°00'1 2.7
2017-Jul-24 22:30N 40°41' W 074°02'3 5.9
2017-Jul-24 22:00N 40°39' W 074°05'3 5.7
2017-Jul-24 21:30N 40°39' W 074°09'3 5.0
2017-Jul-24 20:59N 40°41' W 074°08'1 2.3
2017-Jul-24 20:29N 40°42' W 074°09'0 0.1
2017-Jul-24 19:59N 40°42' W 074°09'0 0.0
2017-Jul-24 19:26N 40°42' W 074°09'1 2.9
2017-Jul-24 19:00N 40°41' W 074°08'2 4.4
2017-Jul-24 18:28N 40°38' W 074°08'2 0.1
2017-Jul-23 21:49N 40°39' W 074°10'2 5.6
2017-Jul-23 21:30N 40°38' W 074°08'0 0.0
2017-Jul-23 21:00N 40°38' W 074°08'3 1.5
2017-Jul-23 19:01N 40°39' W 074°04'012.2
2017-Jul-23 19:00N 40°39' W 074°04'2 2.7
2017-Jul-23 18:21N 40°37' W 074°03'0 1.1
2017-Jul-23 18:00N 40°37' W 074°03'1 1.7
2017-Jul-23 17:30N 40°36' W 074°02'1 1.8
2017-Jul-23 17:01N 40°37' W 074°03'4 7.7
2017-Jul-23 16:30N 40°39' W 074°07'0 0.0
2017-Jul-22 23:29N 40°38' W 074°08'0 0.0
2017-Jul-22 23:00N 40°38' W 074°08'0 0.0
2017-Jul-22 22:29N 40°38' W 074°08'0 0.0
2017-Jul-22 21:59N 40°38' W 074°08'2 4.2
2017-Jul-22 21:30N 40°40' W 074°08'2 4.4
2017-Jul-22 20:58N 40°43' W 074°07'1 1.2
2017-Jul-22 20:30N 40°42' W 074°07'4 7.1
2017-Jul-22 19:59N 40°39' W 074°09'2 3.5
2017-Jul-22 19:30N 40°40' W 074°08'2 4.0
2017-Jul-22 19:00N 40°39' W 074°09'2 3.9
2017-Jul-22 18:30N 40°40' W 074°08'1 1.5
2017-Jul-22 18:00N 40°41' W 074°09'3 4.8
2017-Jul-22 17:28N 40°38' W 074°08'0 0.0
2017-Jul-22 16:58N 40°38' W 074°08'0 0.0
2017-Jul-22 16:29N 40°38' W 074°08'0 0.0
2017-Jul-22 15:55N 40°38' W 074°08'0 0.0
2017-Jul-22 15:28N 40°38' W 074°08'0 0.0
2017-Jul-22 14:49N 40°38' W 074°08'0 0.0
2017-Jul-22 02:02N 40°38' W 074°08'0 0.0
2017-Jul-22 01:56N 40°38' W 074°08'0 0.3
2017-Jul-22 01:30N 40°39' W 074°08'4 7.4
2017-Jul-22 01:00N 40°37' W 074°03'1 2.4
2017-Jul-22 00:30N 40°36' W 074°02'5 9.2
2017-Jul-22 00:00N 40°39' W 074°08'1 1.6
2017-Jul-21 23:30N 40°39' W 074°09'3 5.0
2017-Jul-21 23:00N 40°41' W 074°09'1 1.9
2017-Jul-21 22:31N 40°40' W 074°08'0 0.7
2017-Jul-21 22:00N 40°41' W 074°08'0 0.5
2017-Jul-21 21:29N 40°41' W 074°09'0 0.4
2017-Jul-21 20:58N 40°41' W 074°09'0 0.6
2017-Jul-21 20:30N 40°41' W 074°09'0 0.0
2017-Jul-21 20:00N 40°41' W 074°09'1 1.2
2017-Jul-21 19:31N 40°41' W 074°09'0 0.5
2017-Jul-21 19:01N 40°41' W 074°08'3 4.3
2017-Jul-21 18:25N 40°38' W 074°08'0 0.0
2017-Jul-21 17:55N 40°38' W 074°08'0 0.0
2017-Jul-21 17:25N 40°38' W 074°08'0 0.0
2017-Jul-21 16:58N 40°38' W 074°08'0 0.0
2017-Jul-21 16:28N 40°38' W 074°08'0 0.0
2017-Jul-21 15:58N 40°38' W 074°08'0 0.0
2017-Jul-21 15:25N 40°38' W 074°08'0 0.0
2017-Jul-21 14:55N 40°38' W 074°08'0 0.0
2017-Jul-21 14:28N 40°38' W 074°08'0 0.0
2017-Jul-21 13:58N 40°38' W 074°08'0 0.0
2017-Jul-21 13:28N 40°38' W 074°08'3 0.6
2017-Jul-21 08:34N 40°39' W 074°04'112.0
2017-Jul-21 08:30N 40°38' W 074°04'3 0.4
2017-Jul-21 01:14N 40°38' W 074°08'0 2.1
2017-Jul-21 01:00N 40°39' W 074°07'1 2.9
2017-Jul-21 00:30N 40°40' W 074°08'1 1.4
2017-Jul-21 00:00N 40°41' W 074°08'0 0.1
2017-Jul-20 23:30N 40°41' W 074°08'2 4.0
2017-Jul-20 23:00N 40°39' W 074°08'2 4.8
2017-Jul-20 22:30N 40°39' W 074°11'0 0.2
2017-Jul-20 21:09N 40°38' W 074°11'1 4.8
2017-Jul-20 20:59N 40°39' W 074°10'2 3.6
2017-Jul-20 20:25N 40°38' W 074°08'3 7.6
2017-Jul-20 20:00N 40°39' W 074°04'1 2.5
2017-Jul-20 19:28N 40°37' W 074°04'0 0.2
2017-Jul-20 18:59N 40°37' W 074°03'1 2.6
2017-Jul-20 18:29N 40°36' W 074°02'3 5.3
2017-Jul-20 18:00N 40°39' W 074°03'1 1.9
2017-Jul-20 17:29N 40°40' W 074°03'0 0.0
2017-Jul-20 16:58N 40°40' W 074°03'0 0.0
2017-Jul-20 16:28N 40°40' W 074°03'0 0.0
2017-Jul-20 15:58N 40°40' W 074°03'0 0.0
2017-Jul-20 15:29N 40°40' W 074°03'0 0.0
2017-Jul-20 14:58N 40°40' W 074°03'3 2.6
2017-Jul-20 13:55N 40°39' W 074°06'0 0.0
2017-Jul-20 13:30N 40°39' W 074°06'2 4.7
2017-Jul-20 12:59N 40°38' W 074°03'2 3.4
2017-Jul-20 12:30N 40°39' W 074°05'1 0.2
2017-Jul-20 07:17N 40°39' W 074°04'4 0.9
2017-Jul-20 03:02N 40°35' W 074°01'0 0.0
2017-Jul-20 02:59N 40°35' W 074°01'0 0.0
2017-Jul-20 02:28N 40°35' W 074°01'0 0.0
2017-Jul-20 01:55N 40°35' W 074°01'0 0.0
2017-Jul-20 01:29N 40°35' W 074°01'0 0.0
2017-Jul-20 00:59N 40°35' W 074°01'0 0.0
2017-Jul-20 00:28N 40°35' W 074°01'0 0.0
2017-Jul-19 23:58N 40°35' W 074°01'0 0.0
2017-Jul-19 23:22N 40°35' W 074°01'0 0.0
2017-Jul-19 22:58N 40°35' W 074°01'0 0.0
2017-Jul-19 22:28N 40°35' W 074°01'0 0.0
2017-Jul-19 21:55N 40°35' W 074°01'0 0.2
2017-Jul-19 21:26N 40°36' W 074°01'0 0.1
2017-Jul-19 20:58N 40°36' W 074°01'0 0.0
2017-Jul-19 20:28N 40°36' W 074°01'0 0.1
2017-Jul-19 19:55N 40°36' W 074°01'0 0.0
2017-Jul-19 19:28N 40°36' W 074°01'0 0.1
2017-Jul-19 18:58N 40°36' W 074°01'0 0.1
2017-Jul-19 18:28N 40°36' W 074°01'0 0.0
2017-Jul-19 17:58N 40°36' W 074°01'0 0.2
2017-Jul-19 17:29N 40°36' W 074°01'0 0.2
2017-Jul-19 16:59N 40°35' W 074°01'0 0.0
2017-Jul-19 16:25N 40°35' W 074°01'0 0.0
2017-Jul-19 15:47N 40°35' W 074°01'0 0.0
2017-Jul-19 15:30N 40°35' W 074°01'0 0.0
2017-Jul-19 15:00N 40°35' W 074°01'0 0.0
2017-Jul-19 14:30N 40°35' W 074°01'0 0.0
2017-Jul-19 14:00N 40°35' W 074°01'0 0.0
2017-Jul-19 13:30N 40°35' W 074°01'3 2.4
2017-Jul-19 12:26N 40°37' W 074°03'5 2.9
2017-Jul-19 10:42N 40°41' W 074°08'0 0.1
2017-Jul-19 10:17N 40°41' W 074°09'0 0.8
2017-Jul-19 09:59N 40°41' W 074°08'3 3.0
2017-Jul-19 08:50N 40°39' W 074°04'2 4.4
2017-Jul-19 08:27N 40°38' W 074°03'1 1.4
2017-Jul-19 08:00N 40°38' W 074°03'1 1.6
2017-Jul-19 07:30N 40°39' W 074°03'3 6.2
2017-Jul-19 07:00N 40°41' W 074°00'0 0.0
2017-Jul-19 06:30N 40°41' W 074°00'0 0.0
2017-Jul-19 06:00N 40°41' W 074°00'0 0.0
2017-Jul-19 05:30N 40°41' W 074°00'0 0.0
2017-Jul-19 05:00N 40°41' W 074°00'0 0.2
2017-Jul-19 04:30N 40°41' W 074°00'0 0.1
2017-Jul-19 04:00N 40°41' W 074°00'3 6.2
2017-Jul-19 03:30N 40°39' W 074°03'4 3.5
2017-Jul-19 02:23N 40°41' W 074°08'1 2.9
2017-Jul-19 02:00N 40°42' W 074°09'0 0.6
2017-Jul-19 01:30N 40°42' W 074°08'3 6.5
2017-Jul-19 01:00N 40°38' W 074°08'0 0.0
2017-Jul-19 00:30N 40°38' W 074°08'0 0.0
2017-Jul-19 00:00N 40°38' W 074°08'0 0.0
2017-Jul-18 23:30N 40°38' W 074°08'0 0.0
2017-Jul-18 23:00N 40°38' W 074°08'0 0.0
2017-Jul-18 22:30N 40°38' W 074°08'0 0.0
2017-Jul-18 22:01N 40°38' W 074°08'0 0.0
2017-Jul-18 21:30N 40°38' W 074°08'0 0.4
2017-Jul-18 21:00N 40°39' W 074°08'1 2.6
2017-Jul-18 20:30N 40°39' W 074°09'0 0.2
2017-Jul-18 20:00N 40°39' W 074°09'2 3.3
2017-Jul-18 19:31N 40°39' W 074°07'1 3.0
2017-Jul-18 19:01N 40°38' W 074°09'4 6.8
2017-Jul-18 18:30N 40°36' W 074°12'2 3.8
2017-Jul-18 18:00N 40°38' W 074°12'0 0.0
2017-Jul-18 17:30N 40°38' W 074°12'2 4.5
2017-Jul-18 17:00N 40°39' W 074°09'1 2.5
2017-Jul-18 16:30N 40°38' W 074°08'0 0.0
2017-Jul-18 16:00N 40°38' W 074°08'0 0.0
2017-Jul-18 15:30N 40°38' W 074°08'0 0.0
2017-Jul-18 15:00N 40°38' W 074°08'0 0.0
2017-Jul-18 14:00N 40°38' W 074°08'0 0.5
2017-Jul-18 13:30N 40°39' W 074°07'3 6.2
2017-Jul-18 13:00N 40°38' W 074°04'1 0.2
2017-Jul-18 09:07N 40°39' W 074°04'1 5.0
2017-Jul-18 09:00N 40°39' W 074°03'1 1.2
2017-Jul-18 08:30N 40°39' W 074°04'1 0.1
2017-Jul-18 01:38N 40°39' W 074°05'0 0.3
2017-Jul-18 00:55N 40°39' W 074°05'0 0.1
2017-Jul-18 00:24N 40°39' W 074°05'2 4.9
2017-Jul-18 00:01N 40°40' W 074°03'2 4.6
2017-Jul-17 23:31N 40°41' W 074°00'2 3.5
2017-Jul-17 23:01N 40°40' W 074°02'5 9.3
2017-Jul-17 22:30N 40°39' W 074°08'3 5.4
2017-Jul-17 22:01N 40°41' W 074°08'1 1.9
2017-Jul-17 21:30N 40°42' W 074°09'3 5.7
2017-Jul-17 21:00N 40°39' W 074°09'2 4.6
2017-Jul-17 20:30N 40°39' W 074°06'0 0.1
2017-Jul-17 20:01N 40°39' W 074°06'1 1.6
2017-Jul-17 19:31N 40°39' W 074°05'0 0.2
2017-Jul-17 19:01N 40°39' W 074°05'0 0.2
2017-Jul-17 18:30N 40°39' W 074°05'1 2.9
2017-Jul-17 18:01N 40°39' W 074°07'1 1.4
2017-Jul-17 17:30N 40°38' W 074°08'0 0.0
2017-Jul-17 17:00N 40°38' W 074°08'0 0.0
2017-Jul-17 16:30N 40°38' W 074°08'0 0.0
2017-Jul-17 16:00N 40°38' W 074°08'0 0.0
2017-Jul-17 15:31N 40°38' W 074°08'0 0.0
2017-Jul-17 15:00N 40°38' W 074°08'0 0.0
2017-Jul-17 14:30N 40°38' W 074°08'0 0.0
2017-Jul-17 14:00N 40°38' W 074°08'0 0.0
2017-Jul-17 13:30N 40°38' W 074°08'2 0.3
2017-Jul-17 07:08N 40°39' W 074°05'0 0.2
2017-Jul-17 06:36N 40°39' W 074°05'1 3.0
2017-Jul-17 06:10N 40°39' W 074°03'1 3.5
2017-Jul-17 06:00N 40°38' W 074°03'0 0.9
2017-Jul-17 05:29N 40°38' W 074°04'0 0.1
2017-Jul-17 04:57N 40°38' W 074°04'3 1.1
2017-Jul-17 02:08N 40°38' W 074°08'0 0.1
2017-Jul-17 02:00N 40°38' W 074°08'0 0.0
2017-Jul-17 01:29N 40°38' W 074°08'2 4.4
2017-Jul-17 01:01N 40°39' W 074°05'0 0.8
2017-Jul-17 00:31N 40°39' W 074°05'1 1.9
2017-Jul-17 00:01N 40°39' W 074°03'3 6.8
2017-Jul-16 23:30N 40°38' W 074°08'0 0.0
2017-Jul-16 23:00N 40°38' W 074°08'0 0.0
2017-Jul-16 22:30N 40°38' W 074°08'0 0.0
2017-Jul-16 22:00N 40°38' W 074°08'0 0.0
2017-Jul-16 21:00N 40°38' W 074°08'0 0.0
2017-Jul-16 20:30N 40°38' W 074°08'0 0.0
2017-Jul-16 20:00N 40°38' W 074°08'0 0.0
2017-Jul-16 19:30N 40°38' W 074°08'0 0.0
2017-Jul-16 19:00N 40°38' W 074°08'0 0.0
2017-Jul-16 18:30N 40°38' W 074°08'0 0.0
2017-Jul-16 18:00N 40°38' W 074°08'0 0.0
2017-Jul-16 17:30N 40°38' W 074°08'0 0.0
2017-Jul-16 17:00N 40°38' W 074°08'0 0.0
2017-Jul-16 16:30N 40°38' W 074°08'0 0.0
2017-Jul-16 15:59N 40°38' W 074°08'0 0.0
2017-Jul-16 15:30N 40°38' W 074°08'0 0.0
2017-Jul-16 15:00N 40°38' W 074°08'0 0.0
2017-Jul-16 14:30N 40°38' W 074°08'0 0.0
2017-Jul-16 14:00N 40°38' W 074°08'0 0.0
2017-Jul-16 13:31N 40°38' W 074°08'  
Track history (hours):
 
Tides and Currents Weather Stations Pressure Air Temp Water Temp Dewpoint Dewpoint Depression Visibility Wind Speed Wind Dir Waves Ship Positions

Doris Moran

Owner: MORAN TOWING CORPORATION, New Canaan, CT. More information available from US FCC via Universal Licensing System and Coast Guard Vessel Documentation Center.

Last reported at 2017-Jul-26 14:00 UTC. Time now 2017-Jul-26 14:42 UTC.
Position N 40°39' W 074°03'.

Length 36 m; draft 5.3 m.

Type: Tug. MMSI: 366939790.

Date/timePositionNaut miles runAvg speedWind from/ knotsBaromVisibWave heightAir tempDewpointWater temp
2017-Jul-26 14:00N 40°39' W 074°03'0 0.2
2017-Jul-26 13:30N 40°39' W 074°03'0 0.0
2017-Jul-26 13:00N 40°39' W 074°03'0 0.1
2017-Jul-26 12:30N 40°39' W 074°03'0 0.1
2017-Jul-26 12:00N 40°39' W 074°03'0 0.1
2017-Jul-26 11:31N 40°39' W 074°03'4 8.9
2017-Jul-26 11:01N 40°39' W 074°09'2 2.8
2017-Jul-26 10:16N 40°39' W 074°11'1 4.9
2017-Jul-26 10:01N 40°39' W 074°10'3 6.2
2017-Jul-26 09:30N 40°39' W 074°06'2 3.1
2017-Jul-26 09:00N 40°39' W 074°04'3 3.9
2017-Jul-26 08:10N 40°38' W 074°08'0 0.0
2017-Jul-26 07:52N 40°38' W 074°08'0 0.0
2017-Jul-26 07:28N 40°38' W 074°08'0 0.0
2017-Jul-26 06:58N 40°38' W 074°08'0 0.0
2017-Jul-26 06:22N 40°38' W 074°08'0 0.0
2017-Jul-26 05:58N 40°38' W 074°08'0 0.0
2017-Jul-26 05:07N 40°38' W 074°08'0 0.0
2017-Jul-26 04:58N 40°38' W 074°08'0 0.0
2017-Jul-26 04:30N 40°38' W 074°08'4 8.9
2017-Jul-26 04:00N 40°41' W 074°03'2 3.1
2017-Jul-26 03:30N 40°41' W 074°01'0 0.0
2017-Jul-26 03:00N 40°41' W 074°01'3 6.7
2017-Jul-26 02:30N 40°40' W 074°05'0 0.4
2017-Jul-26 02:00N 40°40' W 074°05'0 0.2
2017-Jul-26 01:27N 40°40' W 074°05'1 2.1
2017-Jul-26 01:00N 40°40' W 074°04'2 4.8
2017-Jul-26 00:30N 40°38' W 074°03'3 5.6
2017-Jul-26 00:00N 40°39' W 074°06'1 2.3
2017-Jul-25 23:29N 40°38' W 074°08'0 0.0
2017-Jul-25 22:57N 40°38' W 074°08'3 7.6
2017-Jul-25 22:30N 40°38' W 074°12'5 8.9
2017-Jul-25 21:59N 40°33' W 074°14'1 2.2
2017-Jul-25 21:25N 40°32' W 074°15'0 0.6
2017-Jul-25 20:59N 40°33' W 074°15'510.6
2017-Jul-25 20:30N 40°37' W 074°12'2 3.7
2017-Jul-25 20:00N 40°39' W 074°11'2 4.2
2017-Jul-25 19:28N 40°38' W 074°08'0 0.6
2017-Jul-25 19:00N 40°39' W 074°08'2 3.6
2017-Jul-25 18:30N 40°40' W 074°08'1 1.9
2017-Jul-25 17:59N 40°41' W 074°09'1 1.7
2017-Jul-25 17:30N 40°42' W 074°08'0 0.1
2017-Jul-25 17:01N 40°42' W 074°08'2 4.2
2017-Jul-25 16:31N 40°39' W 074°09'2 4.7
2017-Jul-25 16:01N 40°39' W 074°06'0 0.9
2017-Jul-25 15:30N 40°39' W 074°06'1 0.8
2017-Jul-25 13:58N 40°38' W 074°08'0 0.0
2017-Jul-25 13:28N 40°38' W 074°08'0 0.0
2017-Jul-25 12:58N 40°38' W 074°08'0 0.0
2017-Jul-25 12:25N 40°38' W 074°08'0 0.0
2017-Jul-25 11:58N 40°38' W 074°08'0 0.0
2017-Jul-25 11:25N 40°38' W 074°08'0 0.0
2017-Jul-25 10:58N 40°38' W 074°08'0 0.0
2017-Jul-25 10:28N 40°38' W 074°08'0 0.0
2017-Jul-25 09:58N 40°38' W 074°08'0 0.0
2017-Jul-25 09:28N 40°38' W 074°08'0 0.0
2017-Jul-25 08:58N 40°38' W 074°08'0 0.0
2017-Jul-25 08:28N 40°38' W 074°08'0 0.0
2017-Jul-25 07:55N 40°38' W 074°08'0 0.0
2017-Jul-25 07:28N 40°38' W 074°08'0 0.0
2017-Jul-25 06:58N 40°38' W 074°08'0 0.0
2017-Jul-25 06:28N 40°38' W 074°08'0 0.0
2017-Jul-25 05:55N 40°38' W 074°08'0 0.0
2017-Jul-25 05:25N 40°38' W 074°08'0 0.0
2017-Jul-25 04:55N 40°38' W 074°08'0 0.0
2017-Jul-25 04:25N 40°38' W 074°08'0 0.0
2017-Jul-25 03:58N 40°38' W 074°08'0 0.0
2017-Jul-25 03:28N 40°38' W 074°08'0 0.0
2017-Jul-25 02:58N 40°38' W 074°08'0 0.0
2017-Jul-25 02:28N 40°38' W 074°08'0 0.0
2017-Jul-25 01:58N 40°38' W 074°08'2 4.6
2017-Jul-25 01:30N 40°39' W 074°05'0 0.4
2017-Jul-25 01:00N 40°39' W 074°05'1 1.6
2017-Jul-25 00:29N 40°40' W 074°04'0 0.0
2017-Jul-24 23:59N 40°40' W 074°04'1 1.2
2017-Jul-24 23:30N 40°40' W 074°03'3 5.6
2017-Jul-24 22:58N 40°41' W 074°00'1 2.7
2017-Jul-24 22:30N 40°41' W 074°02'3 5.9
2017-Jul-24 22:00N 40°39' W 074°05'3 5.7
2017-Jul-24 21:30N 40°39' W 074°09'3 5.0
2017-Jul-24 20:59N 40°41' W 074°08'1 2.3
2017-Jul-24 20:29N 40°42' W 074°09'0 0.1
2017-Jul-24 19:59N 40°42' W 074°09'0 0.0
2017-Jul-24 19:26N 40°42' W 074°09'1 2.9
2017-Jul-24 19:00N 40°41' W 074°08'2 4.4
2017-Jul-24 18:28N 40°38' W 074°08'2 0.1
2017-Jul-23 21:49N 40°39' W 074°10'2 5.6
2017-Jul-23 21:30N 40°38' W 074°08'0 0.0
2017-Jul-23 21:00N 40°38' W 074°08'3 1.5
2017-Jul-23 19:01N 40°39' W 074°04'012.2
2017-Jul-23 19:00N 40°39' W 074°04'2 2.7
2017-Jul-23 18:21N 40°37' W 074°03'0 1.1
2017-Jul-23 18:00N 40°37' W 074°03'1 1.7
2017-Jul-23 17:30N 40°36' W 074°02'1 1.8
2017-Jul-23 17:01N 40°37' W 074°03'4 7.7
2017-Jul-23 16:30N 40°39' W 074°07'0 0.0
2017-Jul-22 23:29N 40°38' W 074°08'0 0.0
2017-Jul-22 23:00N 40°38' W 074°08'0 0.0
2017-Jul-22 22:29N 40°38' W 074°08'0 0.0
2017-Jul-22 21:59N 40°38' W 074°08'2 4.2
2017-Jul-22 21:30N 40°40' W 074°08'2 4.4
2017-Jul-22 20:58N 40°43' W 074°07'1 1.2
2017-Jul-22 20:30N 40°42' W 074°07'4 7.1
2017-Jul-22 19:59N 40°39' W 074°09'2 3.5
2017-Jul-22 19:30N 40°40' W 074°08'2 4.0
2017-Jul-22 19:00N 40°39' W 074°09'2 3.9
2017-Jul-22 18:30N 40°40' W 074°08'1 1.5
2017-Jul-22 18:00N 40°41' W 074°09'3 4.8
2017-Jul-22 17:28N 40°38' W 074°08'0 0.0
2017-Jul-22 16:58N 40°38' W 074°08'0 0.0
2017-Jul-22 16:29N 40°38' W 074°08'0 0.0
2017-Jul-22 15:55N 40°38' W 074°08'0 0.0
2017-Jul-22 15:28N 40°38' W 074°08'0 0.0
2017-Jul-22 14:49N 40°38' W 074°08'0 0.0
2017-Jul-22 02:02N 40°38' W 074°08'0 0.0
2017-Jul-22 01:56N 40°38' W 074°08'0 0.3
2017-Jul-22 01:30N 40°39' W 074°08'4 7.4
2017-Jul-22 01:00N 40°37' W 074°03'1 2.4
2017-Jul-22 00:30N 40°36' W 074°02'5 9.2
2017-Jul-22 00:00N 40°39' W 074°08'1 1.6
2017-Jul-21 23:30N 40°39' W 074°09'3 5.0
2017-Jul-21 23:00N 40°41' W 074°09'1 1.9
2017-Jul-21 22:31N 40°40' W 074°08'0 0.7
2017-Jul-21 22:00N 40°41' W 074°08'0 0.5
2017-Jul-21 21:29N 40°41' W 074°09'0 0.4
2017-Jul-21 20:58N 40°41' W 074°09'0 0.6
2017-Jul-21 20:30N 40°41' W 074°09'0 0.0
2017-Jul-21 20:00N 40°41' W 074°09'1 1.2
2017-Jul-21 19:31N 40°41' W 074°09'0 0.5
2017-Jul-21 19:01N 40°41' W 074°08'3 4.3
2017-Jul-21 18:25N 40°38' W 074°08'0 0.0
2017-Jul-21 17:55N 40°38' W 074°08'0 0.0
2017-Jul-21 17:25N 40°38' W 074°08'0 0.0
2017-Jul-21 16:58N 40°38' W 074°08'0 0.0
2017-Jul-21 16:28N 40°38' W 074°08'0 0.0
2017-Jul-21 15:58N 40°38' W 074°08'0 0.0
2017-Jul-21 15:25N 40°38' W 074°08'0 0.0
2017-Jul-21 14:55N 40°38' W 074°08'0 0.0
2017-Jul-21 14:28N 40°38' W 074°08'0 0.0
2017-Jul-21 13:58N 40°38' W 074°08'0 0.0
2017-Jul-21 13:28N 40°38' W 074°08'3 0.6
2017-Jul-21 08:34N 40°39' W 074°04'112.0
2017-Jul-21 08:30N 40°38' W 074°04'3 0.4
2017-Jul-21 01:14N 40°38' W 074°08'0 2.1
2017-Jul-21 01:00N 40°39' W 074°07'1 2.9
2017-Jul-21 00:30N 40°40' W 074°08'1 1.4
2017-Jul-21 00:00N 40°41' W 074°08'0 0.1
2017-Jul-20 23:30N 40°41' W 074°08'2 4.0
2017-Jul-20 23:00N 40°39' W 074°08'2 4.8
2017-Jul-20 22:30N 40°39' W 074°11'0 0.2
2017-Jul-20 21:09N 40°38' W 074°11'1 4.8
2017-Jul-20 20:59N 40°39' W 074°10'2 3.6
2017-Jul-20 20:25N 40°38' W 074°08'3 7.6
2017-Jul-20 20:00N 40°39' W 074°04'1 2.5
2017-Jul-20 19:28N 40°37' W 074°04'0 0.2
2017-Jul-20 18:59N 40°37' W 074°03'1 2.6
2017-Jul-20 18:29N 40°36' W 074°02'3 5.3
2017-Jul-20 18:00N 40°39' W 074°03'1 1.9
2017-Jul-20 17:29N 40°40' W 074°03'0 0.0
2017-Jul-20 16:58N 40°40' W 074°03'0 0.0
2017-Jul-20 16:28N 40°40' W 074°03'0 0.0
2017-Jul-20 15:58N 40°40' W 074°03'0 0.0
2017-Jul-20 15:29N 40°40' W 074°03'0 0.0
2017-Jul-20 14:58N 40°40' W 074°03'3 2.6
2017-Jul-20 13:55N 40°39' W 074°06'0 0.0
2017-Jul-20 13:30N 40°39' W 074°06'2 4.7
2017-Jul-20 12:59N 40°38' W 074°03'2 3.4
2017-Jul-20 12:30N 40°39' W 074°05'1 0.2
2017-Jul-20 07:17N 40°39' W 074°04'4 0.9
2017-Jul-20 03:02N 40°35' W 074°01'0 0.0
2017-Jul-20 02:59N 40°35' W 074°01'0 0.0
2017-Jul-20 02:28N 40°35' W 074°01'0 0.0
2017-Jul-20 01:55N 40°35' W 074°01'0 0.0
2017-Jul-20 01:29N 40°35' W 074°01'0 0.0
2017-Jul-20 00:59N 40°35' W 074°01'0 0.0
2017-Jul-20 00:28N 40°35' W 074°01'0 0.0
2017-Jul-19 23:58N 40°35' W 074°01'0 0.0
2017-Jul-19 23:22N 40°35' W 074°01'0 0.0
2017-Jul-19 22:58N 40°35' W 074°01'0 0.0
2017-Jul-19 22:28N 40°35' W 074°01'0 0.0
2017-Jul-19 21:55N 40°35' W 074°01'0 0.2
2017-Jul-19 21:26N 40°36' W 074°01'0 0.1
2017-Jul-19 20:58N 40°36' W 074°01'0 0.0
2017-Jul-19 20:28N 40°36' W 074°01'0 0.1
2017-Jul-19 19:55N 40°36' W 074°01'0 0.0
2017-Jul-19 19:28N 40°36' W 074°01'0 0.1
2017-Jul-19 18:58N 40°36' W 074°01'0 0.1
2017-Jul-19 18:28N 40°36' W 074°01'0 0.0
2017-Jul-19 17:58N 40°36' W 074°01'0 0.2
2017-Jul-19 17:29N 40°36' W 074°01'0 0.2
2017-Jul-19 16:59N 40°35' W 074°01'0 0.0
2017-Jul-19 16:25N 40°35' W 074°01'0 0.0
2017-Jul-19 15:47N 40°35' W 074°01'0 0.0
2017-Jul-19 15:30N 40°35' W 074°01'0 0.0
2017-Jul-19 15:00N 40°35' W 074°01'0 0.0
2017-Jul-19 14:30N 40°35' W 074°01'0 0.0
2017-Jul-19 14:00N 40°35' W 074°01'0 0.0
2017-Jul-19 13:30N 40°35' W 074°01'3 2.4
2017-Jul-19 12:26N 40°37' W 074°03'5 2.9
2017-Jul-19 10:42N 40°41' W 074°08'0 0.1
2017-Jul-19 10:17N 40°41' W 074°09'0 0.8
2017-Jul-19 09:59N 40°41' W 074°08'3 3.0
2017-Jul-19 08:50N 40°39' W 074°04'2 4.4
2017-Jul-19 08:27N 40°38' W 074°03'1 1.4
2017-Jul-19 08:00N 40°38' W 074°03'1 1.6
2017-Jul-19 07:30N 40°39' W 074°03'3 6.2
2017-Jul-19 07:00N 40°41' W 074°00'0 0.0
2017-Jul-19 06:30N 40°41' W 074°00'0 0.0
2017-Jul-19 06:00N 40°41' W 074°00'0 0.0
2017-Jul-19 05:30N 40°41' W 074°00'0 0.0
2017-Jul-19 05:00N 40°41' W 074°00'0 0.2
2017-Jul-19 04:30N 40°41' W 074°00'0 0.1
2017-Jul-19 04:00N 40°41' W 074°00'3 6.2
2017-Jul-19 03:30N 40°39' W 074°03'4 3.5
2017-Jul-19 02:23N 40°41' W 074°08'1 2.9
2017-Jul-19 02:00N 40°42' W 074°09'0 0.6
2017-Jul-19 01:30N 40°42' W 074°08'3 6.5
2017-Jul-19 01:00N 40°38' W 074°08'0 0.0
2017-Jul-19 00:30N 40°38' W 074°08'0 0.0
2017-Jul-19 00:00N 40°38' W 074°08'0 0.0
2017-Jul-18 23:30N 40°38' W 074°08'0 0.0
2017-Jul-18 23:00N 40°38' W 074°08'0 0.0
2017-Jul-18 22:30N 40°38' W 074°08'0 0.0
2017-Jul-18 22:01N 40°38' W 074°08'0 0.0
2017-Jul-18 21:30N 40°38' W 074°08'0 0.4
2017-Jul-18 21:00N 40°39' W 074°08'1 2.6
2017-Jul-18 20:30N 40°39' W 074°09'0 0.2
2017-Jul-18 20:00N 40°39' W 074°09'2 3.3
2017-Jul-18 19:31N 40°39' W 074°07'1 3.0
2017-Jul-18 19:01N 40°38' W 074°09'4 6.8
2017-Jul-18 18:30N 40°36' W 074°12'2 3.8
2017-Jul-18 18:00N 40°38' W 074°12'0 0.0
2017-Jul-18 17:30N 40°38' W 074°12'2 4.5
2017-Jul-18 17:00N 40°39' W 074°09'1 2.5
2017-Jul-18 16:30N 40°38' W 074°08'0 0.0
2017-Jul-18 16:00N 40°38' W 074°08'0 0.0
2017-Jul-18 15:30N 40°38' W 074°08'0 0.0
2017-Jul-18 15:00N 40°38' W 074°08'0 0.0
2017-Jul-18 14:00N 40°38' W 074°08'0 0.5
2017-Jul-18 13:30N 40°39' W 074°07'3 6.2
2017-Jul-18 13:00N 40°38' W 074°04'1 0.2
2017-Jul-18 09:07N 40°39' W 074°04'1 5.0
2017-Jul-18 09:00N 40°39' W 074°03'1 1.2
2017-Jul-18 08:30N 40°39' W 074°04'1 0.1
2017-Jul-18 01:38N 40°39' W 074°05'0 0.3
2017-Jul-18 00:55N 40°39' W 074°05'0 0.1
2017-Jul-18 00:24N 40°39' W 074°05'2 4.9
2017-Jul-18 00:01N 40°40' W 074°03'2 4.6
2017-Jul-17 23:31N 40°41' W 074°00'2 3.5
2017-Jul-17 23:01N 40°40' W 074°02'5 9.3
2017-Jul-17 22:30N 40°39' W 074°08'3 5.4
2017-Jul-17 22:01N 40°41' W 074°08'1 1.9
2017-Jul-17 21:30N 40°42' W 074°09'3 5.7
2017-Jul-17 21:00N 40°39' W 074°09'2 4.6
2017-Jul-17 20:30N 40°39' W 074°06'0 0.1
2017-Jul-17 20:01N 40°39' W 074°06'1 1.6
2017-Jul-17 19:31N 40°39' W 074°05'0 0.2
2017-Jul-17 19:01N 40°39' W 074°05'0 0.2
2017-Jul-17 18:30N 40°39' W 074°05'1 2.9
2017-Jul-17 18:01N 40°39' W 074°07'1 1.4
2017-Jul-17 17:30N 40°38' W 074°08'0 0.0
2017-Jul-17 17:00N 40°38' W 074°08'0 0.0
2017-Jul-17 16:30N 40°38' W 074°08'0 0.0
2017-Jul-17 16:00N 40°38' W 074°08'0 0.0
2017-Jul-17 15:31N 40°38' W 074°08'0 0.0
2017-Jul-17 15:00N 40°38' W 074°08'0 0.0
2017-Jul-17 14:30N 40°38' W 074°08'0 0.0
2017-Jul-17 14:00N 40°38' W 074°08'0 0.0
2017-Jul-17 13:30N 40°38' W 074°08'2 0.3
2017-Jul-17 07:08N 40°39' W 074°05'0 0.2
2017-Jul-17 06:36N 40°39' W 074°05'1 3.0
2017-Jul-17 06:10N 40°39' W 074°03'1 3.5
2017-Jul-17 06:00N 40°38' W 074°03'0 0.9
2017-Jul-17 05:29N 40°38' W 074°04'0 0.1
2017-Jul-17 04:57N 40°38' W 074°04'3 1.1
2017-Jul-17 02:08N 40°38' W 074°08'0 0.1
2017-Jul-17 02:00N 40°38' W 074°08'0 0.0
2017-Jul-17 01:29N 40°38' W 074°08'2 4.4
2017-Jul-17 01:01N 40°39' W 074°05'0 0.8
2017-Jul-17 00:31N 40°39' W 074°05'1 1.9
2017-Jul-17 00:01N 40°39' W 074°03'3 6.8
2017-Jul-16 23:30N 40°38' W 074°08'0 0.0
2017-Jul-16 23:00N 40°38' W 074°08'0 0.0
2017-Jul-16 22:30N 40°38' W 074°08'0 0.0
2017-Jul-16 22:00N 40°38' W 074°08'0 0.0
2017-Jul-16 21:00N 40°38' W 074°08'0 0.0
2017-Jul-16 20:30N 40°38' W 074°08'0 0.0
2017-Jul-16 20:00N 40°38' W 074°08'0 0.0
2017-Jul-16 19:30N 40°38' W 074°08'0 0.0
2017-Jul-16 19:00N 40°38' W 074°08'0 0.0
2017-Jul-16 18:30N 40°38' W 074°08'0 0.0
2017-Jul-16 18:00N 40°38' W 074°08'0 0.0
2017-Jul-16 17:30N 40°38' W 074°08'0 0.0
2017-Jul-16 17:00N 40°38' W 074°08'0 0.0
2017-Jul-16 16:30N 40°38' W 074°08'0 0.0
2017-Jul-16 15:59N 40°38' W 074°08'0 0.0
2017-Jul-16 15:30N 40°38' W 074°08'0 0.0
2017-Jul-16 15:00N 40°38' W 074°08'0 0.0
2017-Jul-16 14:30N 40°38' W 074°08'0 0.0
2017-Jul-16 14:00N 40°38' W 074°08'0 0.0
2017-Jul-16 13:31N 40°38' W 074°08'  

Dump ship's entire track history